Skip Navigation LinksHome page > Weather > Current weather Skip Navigation Links

Current Weather

Sarh, Chad

For information only: do not use for flight planning or navigation.
Latest weather
Observation time Friday, August 1, 2014 4:00 AM WAT
Local time Friday, August 1, 2014 4:43 AM WAT
Flight conditions Conditions unknown
Winds
Wind direction South (190°)
Wind speed 10 mph
Sky condition
Ceiling unlimited
Cloud layer scattered clouds 2,000 ft.
Temperature 73°F
Dewpoint 72°F
Altimeter 29.94 in.Hg
Derived measurements
Relative humidity 94%
Density altitude 1261 ft.
METAR FTTA 010300Z 19009KT SCT020 23/22 Q1014

Settings

Location code

InnerDrive.Weather 4.0.5294.0 Release CLR 4.0.30319.34014
Copyright ©2014 Inner Drive Technology. All rights reserved. Portions Copyright ©1986-2014 David Braverman.

Find weather

Site navigation


Skip Navigation Links

Place info

Page info

PayPal - The safer, easier way to pay online!

Return home.

Copyright ©2014 Inner Drive Technology. Purveyors of fine, hand-crafted computer software. Page printed 2014-08-01T03:43:47 UTC.